createdAt,value
2022-10-05T00:02:52.295Z,4.15
2022-10-05T00:05:53.985Z,4.22
2022-10-05T00:08:56.546Z,4.40
2022-10-05T00:11:58.394Z,3.92
2022-10-05T00:15:01.340Z,4.68
2022-10-05T00:18:09.860Z,4.35
2022-10-05T00:21:25.735Z,4.50
2022-10-05T00:24:27.286Z,4.18
2022-10-05T00:27:35.109Z,4.45
2022-10-05T00:30:36.606Z,4.28
2022-10-05T00:33:38.122Z,4.13
2022-10-05T00:36:40.049Z,4.10
2022-10-05T00:39:42.427Z,4.28
2022-10-05T00:42:50.079Z,4.38
2022-10-05T00:46:00.275Z,4.28
2022-10-05T00:49:30.697Z,4.05
2022-10-05T00:52:43.761Z,4.72
2022-10-05T00:56:19.921Z,4.10
2022-10-05T00:59:56.895Z,4.10
2022-10-05T01:03:14.249Z,4.07
2022-10-05T01:06:22.576Z,4.63
2022-10-05T01:09:46.506Z,3.80
2022-10-05T01:13:08.813Z,4.10
2022-10-05T01:16:18.025Z,4.45
2022-10-05T01:19:28.618Z,3.80
2022-10-05T01:22:48.191Z,3.88
2022-10-05T01:26:41.009Z,3.90
2022-10-05T01:30:03.766Z,4.10
2022-10-05T01:33:18.926Z,3.85
2022-10-05T01:36:39.737Z,3.90
2022-10-05T01:39:58.795Z,4.18
2022-10-05T01:43:11.880Z,3.40
2022-10-05T01:46:19.375Z,3.85
2022-10-05T01:49:38.713Z,3.60
2022-10-05T01:52:57.238Z,4.00
2022-10-05T01:56:36.055Z,3.75
2022-10-05T02:00:06.552Z,3.90
2022-10-05T02:03:21.857Z,3.78
2022-10-05T02:06:26.495Z,3.95
2022-10-05T02:09:37.383Z,3.22
2022-10-05T02:12:39.009Z,3.70
2022-10-05T02:15:46.186Z,3.50
2022-10-05T02:18:59.856Z,3.67
2022-10-05T02:22:08.655Z,3.42
2022-10-05T02:25:15.700Z,3.80
2022-10-05T02:28:27.442Z,3.80
2022-10-05T02:32:00.500Z,3.55
2022-10-05T02:35:09.380Z,3.50
2022-10-05T02:38:25.391Z,3.67
2022-10-05T02:41:51.245Z,3.47
2022-10-05T02:45:06.361Z,3.45
2022-10-05T02:48:28.768Z,3.70
2022-10-05T02:51:56.146Z,3.88
2022-10-05T02:55:23.201Z,3.75
2022-10-05T02:58:29.005Z,3.70
2022-10-05T03:01:46.811Z,3.13
2022-10-05T03:04:55.904Z,3.70
2022-10-05T03:08:02.411Z,3.88
2022-10-05T03:11:27.730Z,3.10
2022-10-05T03:14:59.869Z,3.42
2022-10-05T03:18:16.424Z,3.40
2022-10-05T03:21:36.620Z,3.10
2022-10-05T03:25:24.288Z,3.40
2022-10-05T03:28:53.894Z,3.28
2022-10-05T03:32:23.485Z,3.88
2022-10-05T03:35:33.152Z,3.50
2022-10-05T03:38:54.560Z,3.78
2022-10-05T03:42:16.652Z,3.22
2022-10-05T03:46:00.449Z,3.58
2022-10-05T03:49:25.125Z,3.20
2022-10-05T03:55:50.928Z,3.78
2022-10-05T03:58:58.755Z,3.10
2022-10-05T04:02:04.853Z,3.25
2022-10-05T04:05:09.665Z,3.40
2022-10-05T04:08:25.002Z,3.45
2022-10-05T04:11:42.670Z,3.35
2022-10-05T04:14:49.337Z,3.83
2022-10-05T04:18:05.408Z,3.38
2022-10-05T04:21:23.516Z,3.30
2022-10-05T04:24:47.263Z,3.95
2022-10-05T04:28:07.565Z,3.20
2022-10-05T04:31:15.867Z,2.83
2022-10-05T04:35:02.269Z,3.30
2022-10-05T04:38:28.720Z,3.45
2022-10-05T04:42:13.840Z,3.45
2022-10-05T04:45:38.219Z,3.58
2022-10-05T04:49:00.034Z,3.40
2022-10-05T04:52:20.032Z,3.33
2022-10-05T04:55:30.259Z,3.53
2022-10-05T04:58:45.407Z,2.92
2022-10-05T05:02:00.076Z,3.70
2022-10-05T05:05:17.851Z,3.88
2022-10-05T05:08:55.246Z,3.20
2022-10-05T05:12:49.700Z,3.47
2022-10-05T05:16:02.135Z,3.90
2022-10-05T05:19:37.473Z,4.68
2022-10-05T05:22:45.031Z,4.10
2022-10-05T05:26:07.825Z,4.20
2022-10-05T05:29:27.336Z,3.80
2022-10-05T05:32:59.891Z,3.90
2022-10-05T05:36:26.780Z,3.83
2022-10-05T05:39:44.381Z,3.53
2022-10-05T05:43:02.418Z,3.70
2022-10-05T05:46:30.098Z,3.92
2022-10-05T05:49:54.717Z,4.47
2022-10-05T05:53:14.801Z,3.53
2022-10-05T05:56:30.914Z,3.95
2022-10-05T05:59:52.130Z,3.80
2022-10-05T06:03:09.093Z,3.60
2022-10-05T06:06:14.792Z,3.50
2022-10-05T06:09:25.899Z,4.10
2022-10-05T06:12:47.683Z,3.83
2022-10-05T06:15:58.653Z,4.30
2022-10-05T06:19:16.521Z,3.97
2022-10-05T06:22:30.157Z,3.90
2022-10-05T06:25:34.672Z,3.63
2022-10-05T06:28:36.791Z,4.25
2022-10-05T06:32:01.751Z,3.80
2022-10-05T06:35:41.681Z,4.03
2022-10-05T06:39:15.603Z,4.10
2022-10-05T06:42:34.225Z,4.18
2022-10-05T06:46:11.128Z,3.80
2022-10-05T06:49:43.234Z,3.40
2022-10-05T06:53:17.464Z,3.90
2022-10-05T06:56:36.298Z,5.15
2022-10-05T07:00:14.698Z,4.55
2022-10-05T07:03:35.718Z,4.47
2022-10-05T07:06:39.839Z,5.43
2022-10-05T07:10:01.331Z,5.68
2022-10-05T07:13:15.153Z,4.53
2022-10-05T07:16:32.052Z,5.55
2022-10-05T07:19:58.601Z,5.80
2022-10-05T07:23:25.031Z,5.22
2022-10-05T07:27:05.426Z,5.18
2022-10-05T07:30:11.724Z,6.03
2022-10-05T07:33:44.417Z,5.68
2022-10-05T07:37:31.245Z,5.05
2022-10-05T07:40:39.232Z,5.10
2022-10-05T07:44:02.026Z,5.35
2022-10-05T07:47:15.040Z,5.57
2022-10-05T07:50:22.477Z,5.05
2022-10-05T07:53:35.217Z,4.90
2022-10-05T07:56:41.723Z,5.22
2022-10-05T07:59:57.263Z,5.32
2022-10-05T08:03:22.563Z,6.13
2022-10-05T08:06:57.459Z,5.93
2022-10-05T08:13:33.304Z,5.10
2022-10-05T08:16:38.432Z,5.18
2022-10-05T08:19:46.921Z,4.90
2022-10-05T08:22:59.078Z,4.43
2022-10-05T08:26:16.464Z,4.93
2022-10-05T08:29:31.003Z,4.00
2022-10-05T08:32:47.605Z,5.10
2022-10-05T08:36:03.429Z,4.10
2022-10-05T08:39:18.242Z,3.92
2022-10-05T08:42:32.702Z,3.85
2022-10-05T08:45:49.164Z,3.35
2022-10-05T08:49:24.378Z,2.35
2022-10-05T08:52:33.059Z,2.47
2022-10-05T08:55:56.115Z,2.35
2022-10-05T08:59:16.856Z,2.63
2022-10-05T09:02:38.923Z,2.25
2022-10-05T09:06:05.100Z,2.45
2022-10-05T09:09:20.644Z,2.35
2022-10-05T09:12:59.347Z,1.88
2022-10-05T09:16:35.591Z,2.08
2022-10-05T09:20:09.780Z,1.60
2022-10-05T09:23:15.920Z,2.15
2022-10-05T09:26:43.472Z,2.00
2022-10-05T09:30:16.537Z,1.30
2022-10-05T09:33:48.927Z,1.65
2022-10-05T09:37:17.965Z,1.85
2022-10-05T09:40:56.744Z,1.98
2022-10-05T09:44:16.197Z,1.80
2022-10-05T09:47:36.487Z,2.03
2022-10-05T09:50:37.917Z,1.95
2022-10-05T09:54:01.820Z,1.45
2022-10-05T09:57:33.720Z,1.73
2022-10-05T10:00:38.168Z,1.35
2022-10-05T10:03:42.969Z,1.80
2022-10-05T10:07:02.297Z,1.60
2022-10-05T10:10:15.693Z,2.08
2022-10-05T10:13:37.005Z,1.80
2022-10-05T10:17:01.948Z,1.23
2022-10-05T10:20:12.343Z,1.20
2022-10-05T10:23:28.415Z,1.42
2022-10-05T10:26:45.961Z,1.00
2022-10-05T10:30:03.800Z,1.10
2022-10-05T10:33:26.648Z,1.63
2022-10-05T10:37:01.612Z,1.20
2022-10-05T10:40:38.941Z,1.10
2022-10-05T10:43:55.412Z,1.38
2022-10-05T10:47:14.948Z,1.45
2022-10-05T10:50:35.046Z,1.40
2022-10-05T10:54:03.552Z,1.08
2022-10-05T10:57:16.879Z,1.38
2022-10-05T11:00:35.630Z,1.80
2022-10-05T11:03:55.432Z,1.30
2022-10-05T11:07:09.138Z,1.13
2022-10-05T11:10:20.029Z,1.25
2022-10-05T11:13:52.584Z,1.17
2022-10-05T11:17:03.155Z,1.33
2022-10-05T11:20:23.190Z,1.13
2022-10-05T11:23:52.608Z,1.30
2022-10-05T11:27:26.388Z,0.93
2022-10-05T11:30:51.169Z,1.10
2022-10-05T11:34:17.715Z,1.33
2022-10-05T11:37:36.272Z,1.48
2022-10-05T11:40:47.583Z,1.00
2022-10-05T11:44:40.001Z,1.20
2022-10-05T11:47:44.172Z,1.02
2022-10-05T11:51:04.387Z,1.00
2022-10-05T11:54:27.078Z,1.15
2022-10-05T11:57:37.636Z,1.40
2022-10-05T12:00:59.028Z,0.95
2022-10-05T12:04:19.877Z,1.05
2022-10-05T12:07:35.284Z,1.27
2022-10-05T12:10:55.004Z,1.50
2022-10-05T12:14:24.385Z,1.38
2022-10-05T12:17:42.667Z,1.85
2022-10-05T12:21:00.164Z,1.75
2022-10-05T12:24:01.609Z,1.80
2022-10-05T12:27:26.861Z,2.08
2022-10-05T12:30:47.209Z,1.77
2022-10-05T12:34:23.770Z,1.95
2022-10-05T12:37:48.515Z,1.77
2022-10-05T12:41:16.097Z,1.80
2022-10-05T12:44:43.027Z,1.88
2022-10-05T12:48:04.731Z,2.30
2022-10-05T12:51:19.657Z,2.30
2022-10-05T12:54:30.992Z,2.65
2022-10-05T12:57:45.311Z,2.40
2022-10-05T13:00:54.247Z,2.05
2022-10-05T13:04:31.750Z,2.20
2022-10-05T13:07:39.224Z,2.20
2022-10-05T13:10:45.264Z,2.10
2022-10-05T13:14:18.555Z,2.22
2022-10-05T13:17:41.065Z,2.35
2022-10-05T13:20:48.809Z,2.60
2022-10-05T13:24:08.378Z,2.50
2022-10-05T13:27:40.711Z,2.05
2022-10-05T13:31:01.096Z,3.00
2022-10-05T13:34:33.242Z,2.40
2022-10-05T13:37:37.746Z,3.42
2022-10-05T13:40:51.485Z,3.72
2022-10-05T13:47:11.604Z,4.50
2022-10-05T13:50:25.833Z,4.03
2022-10-05T13:53:42.225Z,4.15
2022-10-05T13:56:49.041Z,3.80
2022-10-05T13:59:57.532Z,3.75
2022-10-05T14:03:00.895Z,4.60
2022-10-05T14:09:34.892Z,3.50
2022-10-05T14:12:42.576Z,3.22
2022-10-05T14:16:04.407Z,4.05
2022-10-05T14:19:06.025Z,3.28
2022-10-05T14:22:14.713Z,3.70
2022-10-05T14:25:18.049Z,3.35
2022-10-05T14:28:34.107Z,3.53
2022-10-05T14:31:37.046Z,3.08
2022-10-05T14:34:56.235Z,2.65
2022-10-05T14:38:09.587Z,2.80
2022-10-05T14:41:11.035Z,3.10
2022-10-05T14:44:15.588Z,2.70
2022-10-05T14:47:22.561Z,3.17
2022-10-05T14:50:31.400Z,2.47
2022-10-05T14:53:40.816Z,2.83
2022-10-05T14:57:05.328Z,3.05
2022-10-05T15:00:14.277Z,3.55
2022-10-05T15:03:42.281Z,2.88
2022-10-05T15:07:16.707Z,3.58
2022-10-05T15:10:36.232Z,3.30
2022-10-05T15:13:41.771Z,2.78
2022-10-05T15:16:44.186Z,3.45
2022-10-05T15:19:55.510Z,3.38
2022-10-05T15:23:24.856Z,3.42
2022-10-05T15:26:36.101Z,2.92
2022-10-05T15:29:56.372Z,3.38
2022-10-05T15:33:14.417Z,3.65
2022-10-05T15:36:35.615Z,3.20
2022-10-05T15:39:48.887Z,3.08
2022-10-05T15:42:55.254Z,3.03
2022-10-05T15:46:15.857Z,3.10
2022-10-05T15:49:33.755Z,3.03
2022-10-05T15:52:43.433Z,3.15
2022-10-05T15:55:55.489Z,2.85
2022-10-05T15:59:07.038Z,3.05
2022-10-05T16:02:18.964Z,3.08
2022-10-05T16:05:49.151Z,2.90
2022-10-05T16:09:19.751Z,3.25
2022-10-05T16:12:46.392Z,2.88
2022-10-05T16:16:16.737Z,3.80
2022-10-05T16:19:28.629Z,4.85
2022-10-05T16:22:44.938Z,3.30
2022-10-05T16:26:04.512Z,3.80
2022-10-05T16:29:14.926Z,4.07
2022-10-05T16:32:18.678Z,4.20
2022-10-05T16:35:55.392Z,4.93
2022-10-05T16:39:03.143Z,4.68
2022-10-05T16:42:13.641Z,3.75
2022-10-05T16:45:45.618Z,4.32
2022-10-05T16:49:38.472Z,4.15
2022-10-05T16:52:44.990Z,4.45
2022-10-05T16:55:49.697Z,4.78
2022-10-05T16:58:53.979Z,4.38
2022-10-05T17:02:14.985Z,4.68
2022-10-05T17:05:29.895Z,4.90
2022-10-05T17:08:52.577Z,4.65
2022-10-05T17:12:10.393Z,4.70
2022-10-05T17:15:52.643Z,4.93
2022-10-05T17:18:54.196Z,4.50
2022-10-05T17:22:03.042Z,4.43
2022-10-05T17:25:04.701Z,4.93
2022-10-05T17:28:22.970Z,4.30
2022-10-05T17:31:28.105Z,5.30
2022-10-05T17:34:36.725Z,5.45
2022-10-05T17:37:43.884Z,5.70
2022-10-05T17:41:00.527Z,6.30
2022-10-05T17:44:13.248Z,5.68
2022-10-05T17:47:16.097Z,5.35
2022-10-05T17:51:02.477Z,4.73
2022-10-05T17:54:37.724Z,5.95
2022-10-05T17:57:39.622Z,6.38
2022-10-05T18:01:04.353Z,5.78
2022-10-05T18:04:11.754Z,6.03
2022-10-05T18:07:22.489Z,6.20
2022-10-05T18:10:28.791Z,6.38
2022-10-05T18:13:46.124Z,5.97
2022-10-05T18:17:42.042Z,7.90
2022-10-05T18:21:08.662Z,6.25
2022-10-05T18:24:14.012Z,7.28
2022-10-05T18:27:24.717Z,7.57
2022-10-05T18:30:40.491Z,7.85
2022-10-05T18:34:11.679Z,6.80
2022-10-05T18:37:40.006Z,7.38
2022-10-05T18:40:52.643Z,7.95
2022-10-05T18:44:16.030Z,7.05
2022-10-05T18:47:54.981Z,7.00
2022-10-05T18:51:42.308Z,8.07
2022-10-05T18:54:54.760Z,6.25
2022-10-05T19:27:07.207Z,9.52
2022-10-05T19:30:27.114Z,8.48
2022-10-05T19:33:42.293Z,8.35
2022-10-05T19:37:16.427Z,8.90
2022-10-05T19:40:26.697Z,9.27
2022-10-05T19:43:51.932Z,9.10
2022-10-05T19:47:00.001Z,9.98
2022-10-05T19:50:19.808Z,8.88
2022-10-05T19:53:45.716Z,8.45
2022-10-05T19:56:50.397Z,10.38
2022-10-05T19:59:57.822Z,9.23
2022-10-05T20:03:16.915Z,10.77
2022-10-05T20:06:20.863Z,9.57
2022-10-05T20:12:51.584Z,5.78
2022-10-05T20:16:35.936Z,4.13
2022-10-05T20:19:57.500Z,3.45
2022-10-05T20:23:21.192Z,3.38
2022-10-05T20:27:05.151Z,3.50
2022-10-05T20:30:08.315Z,3.47
2022-10-05T20:33:14.605Z,4.38
2022-10-05T20:36:16.229Z,4.60
2022-10-05T20:39:18.756Z,4.22
2022-10-05T20:42:21.191Z,4.25
2022-10-05T20:45:22.760Z,4.90
2022-10-05T20:48:26.186Z,4.18
2022-10-05T20:51:28.911Z,4.15
2022-10-05T20:54:30.934Z,4.32
2022-10-05T20:57:32.610Z,3.95
2022-10-05T21:00:54.203Z,4.07
2022-10-05T21:03:55.973Z,4.13
2022-10-05T21:06:57.845Z,4.07
2022-10-05T21:09:59.570Z,4.00
2022-10-05T21:13:02.774Z,4.22
2022-10-05T21:16:08.606Z,4.07
2022-10-05T21:19:13.055Z,4.28
2022-10-05T21:22:14.731Z,3.65
2022-10-05T21:25:16.320Z,4.20
2022-10-05T21:28:18.466Z,4.13
2022-10-05T21:31:20.081Z,4.20
2022-10-05T21:34:21.706Z,3.85
2022-10-05T21:37:23.168Z,4.20
2022-10-05T21:40:24.719Z,4.78
2022-10-05T21:43:26.733Z,4.22
2022-10-05T21:46:29.572Z,3.85
2022-10-05T21:49:31.153Z,3.95
2022-10-05T21:52:34.288Z,4.18
2022-10-05T21:55:39.343Z,3.80
2022-10-05T21:58:44.641Z,3.67
2022-10-05T22:01:46.198Z,3.75
2022-10-05T22:04:47.689Z,3.38
2022-10-05T22:07:49.248Z,3.72
2022-10-05T22:10:51.106Z,4.18
2022-10-05T22:13:53.328Z,3.92
2022-10-05T22:16:54.879Z,3.70
2022-10-05T22:20:00.441Z,4.00
2022-10-05T22:23:02.000Z,3.90
2022-10-05T22:26:05.077Z,4.00
2022-10-05T22:29:06.753Z,3.47
2022-10-05T22:32:08.486Z,3.75
2022-10-05T22:35:11.810Z,3.90
2022-10-05T22:38:13.772Z,3.60
2022-10-05T22:41:18.146Z,3.60
2022-10-05T22:44:19.671Z,3.63
2022-10-05T22:47:21.165Z,3.85
2022-10-05T22:50:22.691Z,3.70
2022-10-05T22:53:24.174Z,3.40
2022-10-05T22:56:25.868Z,3.35
2022-10-05T22:59:27.599Z,3.65
2022-10-05T23:02:29.180Z,3.85
2022-10-05T23:05:30.681Z,3.20
2022-10-05T23:08:33.607Z,3.67
2022-10-05T23:11:35.080Z,3.42
2022-10-05T23:14:36.590Z,3.70
2022-10-05T23:17:39.217Z,3.15
2022-10-05T23:20:40.730Z,3.67
2022-10-05T23:23:47.201Z,3.70
2022-10-05T23:26:48.676Z,3.38
2022-10-05T23:29:50.113Z,3.67
2022-10-05T23:32:51.557Z,3.47
2022-10-05T23:35:59.173Z,3.63
2022-10-05T23:39:00.596Z,3.30
2022-10-05T23:42:02.117Z,3.60
2022-10-05T23:45:03.825Z,3.05
2022-10-05T23:48:05.292Z,3.67
2022-10-05T23:51:10.001Z,3.03
2022-10-05T23:54:11.476Z,3.83
2022-10-05T23:57:19.702Z,3.20
